createdAt,value
2017-05-31T00:00:36.461Z,80.70
2017-05-31T00:03:06.675Z,80.90
2017-05-31T00:05:36.868Z,81.10
2017-05-31T00:08:06.891Z,81.40
2017-05-31T00:10:37.095Z,81.70
2017-05-31T00:13:07.287Z,81.80
2017-05-31T00:15:37.506Z,81.80
2017-05-31T00:18:07.694Z,81.80
2017-05-31T00:20:37.916Z,81.00
2017-05-31T00:23:08.107Z,81.10
2017-05-31T00:25:38.316Z,81.60
2017-05-31T00:28:08.503Z,81.80
2017-05-31T00:30:38.711Z,81.70
2017-05-31T00:33:08.703Z,82.20
2017-05-31T00:35:38.901Z,82.80
2017-05-31T00:38:09.108Z,83.30
2017-05-31T00:40:39.323Z,83.60
2017-05-31T00:43:09.550Z,83.80
2017-05-31T00:45:39.767Z,83.60
2017-05-31T00:48:09.953Z,83.70
2017-05-31T00:50:40.162Z,83.80
2017-05-31T00:53:10.365Z,83.90
2017-05-31T00:55:40.565Z,84.30
2017-05-31T00:58:10.792Z,84.20
2017-05-31T01:00:40.940Z,84.10
2017-05-31T01:03:11.123Z,83.60
2017-05-31T01:05:41.343Z,83.60
2017-05-31T01:08:11.547Z,83.70
2017-05-31T01:10:41.753Z,83.80
2017-05-31T01:13:11.941Z,84.60
2017-05-31T01:15:42.159Z,84.00
2017-05-31T01:18:12.420Z,83.80
2017-05-31T01:20:42.274Z,84.60
2017-05-31T01:23:12.283Z,85.00
2017-05-31T01:25:42.535Z,85.40
2017-05-31T01:28:12.706Z,85.30
2017-05-31T01:30:42.915Z,85.40
2017-05-31T01:33:13.114Z,85.80
2017-05-31T01:35:42.983Z,86.70
2017-05-31T01:38:13.172Z,87.00
2017-05-31T01:40:43.388Z,87.40
2017-05-31T01:43:13.244Z,87.90
2017-05-31T01:45:43.028Z,88.20
2017-05-31T01:48:13.254Z,88.60
2017-05-31T01:50:43.254Z,88.80
2017-05-31T01:53:13.735Z,88.90
2017-05-31T01:55:44.198Z,89.20
2017-05-31T01:58:14.684Z,89.30
2017-05-31T02:00:45.152Z,89.70
2017-05-31T02:03:15.447Z,89.90
2017-05-31T02:05:45.649Z,90.00
2017-05-31T02:08:16.144Z,89.90
2017-05-31T02:10:46.619Z,90.10
2017-05-31T02:13:17.102Z,89.80
2017-05-31T02:15:47.279Z,90.00
2017-05-31T02:18:17.783Z,89.90
2017-05-31T02:20:48.236Z,89.80
2017-05-31T02:23:18.458Z,89.50
2017-05-31T02:25:48.648Z,89.40
2017-05-31T02:28:19.138Z,89.50
2017-05-31T02:30:49.599Z,89.80
2017-05-31T02:33:20.123Z,89.50
2017-05-31T02:35:50.578Z,89.90
2017-05-31T02:38:21.088Z,89.80
2017-05-31T02:40:51.548Z,89.70
2017-05-31T02:43:21.699Z,89.60
2017-05-31T02:45:52.168Z,89.60
2017-05-31T02:48:22.649Z,89.80
2017-05-31T02:50:53.304Z,90.00
2017-05-31T02:53:23.831Z,90.00
2017-05-31T02:55:54.348Z,89.50
2017-05-31T02:58:24.861Z,89.70
2017-05-31T03:00:55.329Z,89.50
2017-05-31T03:03:25.813Z,89.60
2017-05-31T03:05:56.271Z,89.10
2017-05-31T03:08:26.756Z,88.90
2017-05-31T03:10:57.225Z,88.90
2017-05-31T03:13:27.727Z,89.00
2017-05-31T03:15:58.190Z,88.30
2017-05-31T03:18:28.695Z,88.30
2017-05-31T03:20:59.172Z,88.20
2017-05-31T03:23:29.656Z,87.90
2017-05-31T03:26:00.129Z,87.40
2017-05-31T03:28:30.609Z,88.30
2017-05-31T03:31:01.067Z,87.00
2017-05-31T03:33:31.552Z,87.00
2017-05-31T03:36:02.011Z,87.10
2017-05-31T03:38:32.499Z,87.00
2017-05-31T03:41:02.974Z,87.20
2017-05-31T03:43:33.463Z,86.80
2017-05-31T03:46:03.932Z,87.40
2017-05-31T03:48:34.428Z,86.60
2017-05-31T03:51:04.908Z,86.70
2017-05-31T03:53:35.483Z,86.10
2017-05-31T03:56:05.954Z,85.80
2017-05-31T03:58:36.464Z,85.30
2017-05-31T04:01:06.947Z,84.70
2017-05-31T04:03:37.418Z,84.20
2017-05-31T04:06:07.888Z,83.50
2017-05-31T04:08:38.380Z,83.30
2017-05-31T04:11:08.848Z,83.40
2017-05-31T04:13:39.355Z,83.10
2017-05-31T04:16:09.856Z,82.90
2017-05-31T04:18:40.364Z,82.20
2017-05-31T04:21:10.856Z,82.50
2017-05-31T04:23:41.340Z,82.20
2017-05-31T04:26:11.824Z,82.10
2017-05-31T04:28:42.320Z,82.20
2017-05-31T04:31:12.840Z,81.90
2017-05-31T04:33:43.359Z,81.30
2017-05-31T04:36:13.844Z,81.30
2017-05-31T04:38:44.345Z,81.40
2017-05-31T04:41:14.816Z,81.70
2017-05-31T04:43:45.315Z,82.20
2017-05-31T04:46:15.788Z,82.10
2017-05-31T04:48:46.283Z,81.50
2017-05-31T04:51:16.754Z,81.00
2017-05-31T04:53:47.239Z,81.10
2017-05-31T04:56:17.712Z,81.30
2017-05-31T04:58:48.212Z,81.40
2017-05-31T05:01:18.697Z,81.40
2017-05-31T05:03:49.193Z,80.80
2017-05-31T05:06:19.665Z,80.80
2017-05-31T05:08:50.152Z,80.60
2017-05-31T05:11:20.630Z,80.70
2017-05-31T05:13:51.118Z,80.80
2017-05-31T05:16:21.674Z,80.30
2017-05-31T05:18:52.167Z,80.50
2017-05-31T05:21:22.674Z,80.80
2017-05-31T05:23:53.159Z,81.00
2017-05-31T05:26:23.640Z,80.30
2017-05-31T05:28:54.165Z,80.00
2017-05-31T05:31:24.671Z,79.60
2017-05-31T05:33:55.155Z,79.70
2017-05-31T05:36:25.633Z,79.20
2017-05-31T05:38:56.200Z,78.50
2017-05-31T05:41:26.681Z,77.20
2017-05-31T05:43:56.902Z,76.50
2017-05-31T05:46:27.377Z,75.30
2017-05-31T05:48:57.587Z,75.60
2017-05-31T05:51:27.801Z,75.00
2017-05-31T05:53:58.031Z,75.30
2017-05-31T05:56:28.221Z,75.30
2017-05-31T05:58:58.453Z,74.60
2017-05-31T06:01:28.656Z,73.50
2017-05-31T06:03:58.843Z,71.70
2017-05-31T06:06:29.225Z,71.10
2017-05-31T06:08:59.487Z,70.60
2017-05-31T06:11:29.678Z,70.70
2017-05-31T06:13:59.867Z,70.30
2017-05-31T06:16:30.068Z,69.30
2017-05-31T06:19:00.256Z,68.40
2017-05-31T06:21:30.472Z,67.90
2017-05-31T06:24:00.655Z,67.90
2017-05-31T06:26:30.864Z,67.90
2017-05-31T06:29:01.066Z,69.10
2017-05-31T06:31:31.291Z,70.30
2017-05-31T06:34:01.480Z,70.70
2017-05-31T06:36:31.704Z,70.20
2017-05-31T06:39:01.916Z,70.00
2017-05-31T06:41:32.121Z,70.20
2017-05-31T06:44:02.311Z,68.60
2017-05-31T06:46:32.169Z,66.20
2017-05-31T06:49:02.368Z,65.80
2017-05-31T06:51:32.590Z,65.60
2017-05-31T06:54:02.812Z,65.70
2017-05-31T06:56:33.052Z,66.30
2017-05-31T06:59:03.228Z,66.30
2017-05-31T07:01:33.441Z,66.00
2017-05-31T07:04:03.639Z,64.70
2017-05-31T07:06:33.828Z,64.20
2017-05-31T07:09:03.688Z,64.20
2017-05-31T07:11:33.871Z,63.40
2017-05-31T07:14:04.069Z,64.00
2017-05-31T07:16:34.257Z,64.40
2017-05-31T07:19:04.465Z,64.30
2017-05-31T07:21:34.648Z,62.40
2017-05-31T07:24:05.056Z,60.50
2017-05-31T07:26:35.252Z,59.70
2017-05-31T07:29:05.451Z,62.70
2017-05-31T07:31:35.663Z,65.50
2017-05-31T07:34:07.016Z,66.90
2017-05-31T07:36:37.233Z,67.70
2017-05-31T07:39:07.436Z,67.70
2017-05-31T07:41:37.655Z,69.10
2017-05-31T07:44:07.842Z,69.70
2017-05-31T07:46:38.059Z,69.00
2017-05-31T07:49:08.268Z,67.40
2017-05-31T07:51:38.470Z,66.00
2017-05-31T07:54:08.653Z,65.10
2017-05-31T07:56:38.851Z,66.80
2017-05-31T07:59:09.040Z,66.40
2017-05-31T08:01:39.357Z,61.60
2017-05-31T08:04:09.547Z,58.50
2017-05-31T08:06:39.751Z,58.00
2017-05-31T08:09:09.937Z,58.60
2017-05-31T08:11:40.210Z,59.90
2017-05-31T08:14:10.374Z,60.20
2017-05-31T08:16:40.588Z,59.30
2017-05-31T08:19:10.767Z,58.60
2017-05-31T08:21:40.959Z,57.40
2017-05-31T08:24:10.812Z,55.30
2017-05-31T08:26:41.026Z,54.90
2017-05-31T08:29:11.203Z,56.00
2017-05-31T08:31:41.401Z,59.20
2017-05-31T08:34:11.589Z,62.10
2017-05-31T08:36:41.823Z,63.90
2017-05-31T08:39:12.029Z,65.20
2017-05-31T08:41:42.269Z,64.70
2017-05-31T08:44:12.480Z,60.60
2017-05-31T08:46:42.683Z,58.30
2017-05-31T08:49:12.890Z,54.80
2017-05-31T08:51:43.083Z,53.80
2017-05-31T08:54:13.291Z,52.50
2017-05-31T08:56:43.482Z,52.10
2017-05-31T08:59:13.691Z,52.80
2017-05-31T09:01:43.871Z,54.70
2017-05-31T09:04:14.066Z,55.50
2017-05-31T09:06:44.243Z,53.70
2017-05-31T09:09:14.432Z,51.90
2017-05-31T09:11:44.616Z,50.80
2017-05-31T09:14:14.828Z,50.50
2017-05-31T09:16:45.002Z,50.70
2017-05-31T09:19:15.201Z,50.70
2017-05-31T09:21:45.389Z,51.10
2017-05-31T09:24:15.399Z,51.00
2017-05-31T09:26:45.588Z,52.50
2017-05-31T09:29:15.784Z,52.50
2017-05-31T09:31:45.968Z,52.50
2017-05-31T09:34:16.170Z,52.10
2017-05-31T09:36:46.365Z,50.30
2017-05-31T09:39:16.598Z,47.50
2017-05-31T09:41:46.775Z,49.80
2017-05-31T09:44:16.968Z,50.40
2017-05-31T09:46:47.153Z,50.50
2017-05-31T09:49:17.352Z,51.30
2017-05-31T09:51:47.519Z,52.00
2017-05-31T09:54:17.747Z,53.80
2017-05-31T09:56:47.934Z,53.10
2017-05-31T09:59:18.123Z,50.70
2017-05-31T10:01:48.300Z,48.80
2017-05-31T10:04:18.514Z,50.20
2017-05-31T10:06:48.704Z,51.00
2017-05-31T10:09:18.932Z,53.20
2017-05-31T10:11:55.029Z,53.10
2017-05-31T10:14:25.223Z,48.10
2017-05-31T10:16:55.400Z,47.10
2017-05-31T10:19:25.265Z,46.20
2017-05-31T10:21:55.439Z,43.80
2017-05-31T10:24:25.684Z,43.00
2017-05-31T10:26:55.867Z,41.60
2017-05-31T10:29:26.087Z,41.50
2017-05-31T10:31:56.284Z,41.60
2017-05-31T10:34:26.481Z,40.70
2017-05-31T10:36:56.680Z,43.20
2017-05-31T10:39:26.857Z,44.90
2017-05-31T10:41:57.059Z,43.40
2017-05-31T10:44:26.998Z,43.00
2017-05-31T10:46:57.618Z,43.30
2017-05-31T10:49:27.798Z,42.10
2017-05-31T10:51:57.987Z,39.80
2017-05-31T10:54:27.811Z,39.00
2017-05-31T10:56:58.011Z,39.90
2017-05-31T10:59:28.205Z,42.10
2017-05-31T11:01:58.404Z,42.10
2017-05-31T11:04:28.587Z,42.10
2017-05-31T11:06:58.788Z,39.30
2017-05-31T11:09:28.963Z,38.70
2017-05-31T11:11:59.147Z,41.20
2017-05-31T11:14:29.323Z,43.90
2017-05-31T11:16:59.708Z,45.90
2017-05-31T11:19:29.892Z,47.60
2017-05-31T11:22:00.392Z,48.80
2017-05-31T11:24:30.563Z,48.80
2017-05-31T11:27:00.797Z,45.20
2017-05-31T11:29:30.979Z,40.80
2017-05-31T11:32:01.163Z,38.80
2017-05-31T11:34:31.394Z,36.60
2017-05-31T11:37:01.624Z,36.20
2017-05-31T11:39:31.835Z,33.40
2017-05-31T11:42:02.032Z,35.30
2017-05-31T11:44:32.227Z,36.40
2017-05-31T11:47:02.442Z,35.40
2017-05-31T11:49:32.672Z,35.70
2017-05-31T11:52:02.856Z,38.30
2017-05-31T11:54:33.050Z,37.80
2017-05-31T11:57:03.236Z,38.80
2017-05-31T11:59:33.440Z,40.00
2017-05-31T12:02:03.620Z,37.70
2017-05-31T12:04:33.825Z,37.30
2017-05-31T12:07:04.003Z,35.30
2017-05-31T12:09:34.204Z,34.40
2017-05-31T12:12:04.401Z,32.90
2017-05-31T12:14:34.612Z,34.90
2017-05-31T12:17:04.792Z,36.40
2017-05-31T12:19:34.984Z,34.50
2017-05-31T12:22:05.218Z,33.30
2017-05-31T12:24:35.411Z,33.50
2017-05-31T12:27:05.608Z,32.50
2017-05-31T12:29:35.810Z,32.70
2017-05-31T12:32:06.135Z,32.20
2017-05-31T12:34:36.312Z,31.00
2017-05-31T12:37:06.520Z,30.70
2017-05-31T12:39:36.702Z,31.00
2017-05-31T12:42:06.914Z,32.90
2017-05-31T12:44:37.094Z,31.60
2017-05-31T12:47:09.195Z,31.00
2017-05-31T12:49:39.637Z,32.40
2017-05-31T12:52:09.856Z,34.00
2017-05-31T12:54:39.716Z,34.60
2017-05-31T12:57:09.916Z,34.00
2017-05-31T12:59:40.114Z,35.50
2017-05-31T13:02:10.309Z,38.40
2017-05-31T13:04:40.479Z,38.10
2017-05-31T13:07:10.685Z,36.90
2017-05-31T13:09:40.871Z,35.80
2017-05-31T13:12:11.063Z,34.00
2017-05-31T13:14:41.276Z,33.40
2017-05-31T13:17:11.561Z,32.10
2017-05-31T13:19:41.780Z,32.70
2017-05-31T13:22:11.955Z,32.40
2017-05-31T13:24:42.147Z,31.30
2017-05-31T13:27:12.323Z,31.00
2017-05-31T13:29:42.528Z,30.00
2017-05-31T13:32:12.702Z,30.20
2017-05-31T13:34:42.961Z,28.50
2017-05-31T13:37:13.119Z,28.90
2017-05-31T13:39:43.325Z,30.10
2017-05-31T13:42:13.504Z,30.00
2017-05-31T13:44:43.720Z,32.10
2017-05-31T13:47:13.936Z,33.40
2017-05-31T13:49:44.137Z,30.90
2017-05-31T13:52:14.338Z,29.10
2017-05-31T13:54:44.600Z,28.80
2017-05-31T13:57:14.579Z,27.90
2017-05-31T13:59:44.835Z,28.10
2017-05-31T14:02:15.004Z,29.30
2017-05-31T14:04:45.191Z,28.00
2017-05-31T14:07:15.396Z,28.80
2017-05-31T14:09:45.584Z,29.10
2017-05-31T14:12:15.760Z,27.70
2017-05-31T14:14:45.967Z,27.30
2017-05-31T14:17:16.147Z,27.50
2017-05-31T14:19:46.337Z,29.30
2017-05-31T14:22:16.520Z,30.70
2017-05-31T14:24:46.729Z,32.10
2017-05-31T14:27:16.921Z,30.80
2017-05-31T14:29:47.111Z,31.10
2017-05-31T14:32:17.287Z,31.40
2017-05-31T14:34:47.476Z,31.60
2017-05-31T14:37:17.661Z,33.50
2017-05-31T14:39:47.856Z,34.80
2017-05-31T14:42:18.069Z,34.10
2017-05-31T14:44:48.238Z,33.70
2017-05-31T14:47:18.471Z,32.30
2017-05-31T14:49:48.642Z,33.30
2017-05-31T14:52:18.841Z,33.30
2017-05-31T14:54:49.032Z,33.50
2017-05-31T14:57:19.235Z,34.20
2017-05-31T14:59:49.412Z,33.00
2017-05-31T15:02:19.604Z,32.80
2017-05-31T15:04:49.915Z,33.50
2017-05-31T15:07:20.143Z,32.60
2017-05-31T15:09:50.310Z,32.30
2017-05-31T15:12:20.502Z,32.40
2017-05-31T15:14:50.727Z,32.80
2017-05-31T15:17:20.904Z,33.00
2017-05-31T15:19:51.072Z,33.40
2017-05-31T15:22:21.272Z,34.20
2017-05-31T15:24:51.447Z,33.40
2017-05-31T15:27:21.658Z,32.10
2017-05-31T15:29:51.857Z,32.50
2017-05-31T15:32:22.040Z,33.30
2017-05-31T15:34:52.217Z,33.90
2017-05-31T15:37:22.409Z,33.90
2017-05-31T15:39:52.596Z,33.80
2017-05-31T15:42:22.839Z,33.60
2017-05-31T15:44:53.023Z,32.60
2017-05-31T15:47:23.212Z,32.20
2017-05-31T15:49:53.409Z,32.50
2017-05-31T15:52:23.624Z,33.80
2017-05-31T15:54:53.811Z,33.30
2017-05-31T15:57:24.004Z,33.50
2017-05-31T15:59:54.228Z,35.20
2017-05-31T16:02:24.406Z,35.90
2017-05-31T16:04:54.614Z,34.90
2017-05-31T16:07:24.792Z,33.70
2017-05-31T16:09:55.003Z,33.90
2017-05-31T16:12:25.176Z,34.70
2017-05-31T16:14:55.412Z,35.40
2017-05-31T16:17:25.624Z,35.80
2017-05-31T16:19:55.820Z,36.00
2017-05-31T16:22:26.001Z,36.60
2017-05-31T16:24:56.195Z,36.70
2017-05-31T16:27:26.411Z,37.40
2017-05-31T16:29:56.638Z,37.00
2017-05-31T16:32:26.800Z,37.40
2017-05-31T16:34:56.999Z,37.10
2017-05-31T16:37:27.168Z,37.60
2017-05-31T16:39:57.372Z,37.50
2017-05-31T16:42:27.548Z,37.00
2017-05-31T16:44:57.741Z,35.10
2017-05-31T16:50:10.565Z,34.60
2017-05-31T16:52:40.548Z,35.30
2017-05-31T16:55:10.732Z,35.20
2017-05-31T16:57:40.919Z,32.30
2017-05-31T17:00:11.171Z,31.70
2017-05-31T17:02:41.436Z,31.10
2017-05-31T17:05:11.615Z,31.10
2017-05-31T17:07:41.839Z,33.00
2017-05-31T17:10:12.018Z,33.90
2017-05-31T17:12:42.232Z,34.30
2017-05-31T17:15:12.422Z,34.80
2017-05-31T17:17:42.632Z,34.70
2017-05-31T17:20:12.820Z,32.20
2017-05-31T17:22:43.012Z,32.90
2017-05-31T17:25:13.242Z,33.60
2017-05-31T17:27:43.442Z,34.90
2017-05-31T17:30:13.646Z,35.90
2017-05-31T17:32:43.810Z,37.00
2017-05-31T17:35:14.004Z,37.30
2017-05-31T17:37:44.188Z,37.90
2017-05-31T17:40:14.408Z,33.60
2017-05-31T17:42:44.599Z,32.50
2017-05-31T17:45:14.831Z,33.60
2017-05-31T17:47:45.034Z,32.60
2017-05-31T17:50:15.236Z,32.10
2017-05-31T17:52:45.525Z,32.80
2017-05-31T17:55:15.754Z,32.70
2017-05-31T17:57:45.965Z,33.00
2017-05-31T18:00:16.167Z,33.30
2017-05-31T18:02:46.340Z,34.00
2017-05-31T18:05:16.541Z,34.80
2017-05-31T18:07:46.725Z,34.90
2017-05-31T18:10:16.915Z,35.60
2017-05-31T18:12:47.096Z,36.00
2017-05-31T18:15:17.299Z,37.30
2017-05-31T18:17:47.479Z,37.20
2017-05-31T18:20:17.676Z,37.60
2017-05-31T18:22:47.863Z,38.30
2017-05-31T18:25:18.067Z,38.70
2017-05-31T18:27:48.254Z,38.60
2017-05-31T18:30:18.450Z,38.90
2017-05-31T18:32:48.633Z,39.00
2017-05-31T18:35:18.824Z,39.50
2017-05-31T18:37:49.017Z,39.50
2017-05-31T18:40:19.219Z,39.60
2017-05-31T18:42:49.404Z,39.40
2017-05-31T18:45:19.645Z,39.70
2017-05-31T18:47:49.819Z,40.70
2017-05-31T18:50:20.051Z,40.20
2017-05-31T18:52:50.238Z,40.80
2017-05-31T18:55:20.481Z,41.20
2017-05-31T18:57:50.665Z,41.60
2017-05-31T19:00:20.871Z,41.60
2017-05-31T19:02:51.054Z,41.90
2017-05-31T19:05:21.301Z,42.30
2017-05-31T19:07:51.489Z,43.20
2017-05-31T19:10:21.678Z,44.40
2017-05-31T19:12:51.970Z,45.70
2017-05-31T19:15:22.164Z,46.80
2017-05-31T19:17:52.415Z,47.40
2017-05-31T19:20:22.613Z,47.60
2017-05-31T19:22:52.795Z,47.90
2017-05-31T19:25:23.011Z,47.90
2017-05-31T19:27:53.188Z,47.90
2017-05-31T19:30:23.396Z,48.00
2017-05-31T19:32:53.580Z,47.60
2017-05-31T19:35:23.771Z,47.50
2017-05-31T19:37:53.999Z,47.70
2017-05-31T19:40:24.445Z,47.80
2017-05-31T19:42:54.917Z,47.90
2017-05-31T19:45:25.105Z,47.80
2017-05-31T19:47:55.108Z,47.80
2017-05-31T19:50:25.575Z,48.20
2017-05-31T19:52:56.036Z,48.40
2017-05-31T19:55:26.504Z,48.60
2017-05-31T19:57:56.988Z,48.70
2017-05-31T20:00:27.449Z,49.10
2017-05-31T20:02:57.916Z,48.80
2017-05-31T20:05:28.372Z,48.90
2017-05-31T20:07:58.837Z,49.00
2017-05-31T20:10:29.280Z,49.10
2017-05-31T20:12:59.748Z,49.50
2017-05-31T20:15:30.201Z,49.60
2017-05-31T20:18:00.681Z,49.60
2017-05-31T20:20:30.921Z,49.60
2017-05-31T20:23:01.392Z,50.00
2017-05-31T20:25:31.835Z,50.10
2017-05-31T20:28:02.100Z,50.10
2017-05-31T20:30:32.617Z,49.90
2017-05-31T20:33:03.040Z,50.00
2017-05-31T20:35:33.545Z,49.70
2017-05-31T20:38:04.004Z,49.60
2017-05-31T20:40:34.521Z,49.70
2017-05-31T20:43:04.999Z,49.60
2017-05-31T20:45:35.467Z,49.60
2017-05-31T20:48:06.562Z,49.90
2017-05-31T20:50:37.003Z,50.10
2017-05-31T20:53:07.480Z,50.10
2017-05-31T20:55:37.928Z,49.70
2017-05-31T20:58:08.638Z,49.50
2017-05-31T21:00:39.117Z,49.40
2017-05-31T21:03:09.599Z,49.60
2017-05-31T21:05:40.043Z,49.90
2017-05-31T21:08:11.404Z,50.10
2017-05-31T21:10:41.864Z,50.60
2017-05-31T21:13:12.324Z,50.60
2017-05-31T21:15:42.769Z,50.80
2017-05-31T21:18:13.248Z,51.20
2017-05-31T21:20:43.708Z,51.40
2017-05-31T21:23:14.185Z,51.60
2017-05-31T21:25:44.636Z,51.90
2017-05-31T21:28:15.127Z,51.90
2017-05-31T21:30:45.583Z,51.80
2017-05-31T21:33:16.048Z,51.30
2017-05-31T21:35:46.496Z,51.90
2017-05-31T21:38:16.955Z,52.20
2017-05-31T21:40:47.399Z,52.00
2017-05-31T21:43:17.931Z,52.20
2017-05-31T21:45:48.384Z,52.50
2017-05-31T21:48:18.854Z,52.40
2017-05-31T21:50:49.299Z,52.60
2017-05-31T21:53:19.766Z,53.30
2017-05-31T21:55:50.235Z,53.50
2017-05-31T21:58:20.717Z,54.20
2017-05-31T22:00:51.165Z,54.60
2017-05-31T22:03:21.634Z,54.80
2017-05-31T22:05:52.089Z,54.90
2017-05-31T22:08:22.571Z,55.10
2017-05-31T22:10:53.018Z,54.00
2017-05-31T22:13:23.897Z,53.50
2017-05-31T22:15:54.447Z,53.60
2017-05-31T22:18:24.919Z,53.80
2017-05-31T22:20:55.414Z,54.30
2017-05-31T22:23:25.881Z,54.90
2017-05-31T22:25:56.328Z,55.20
2017-05-31T22:28:26.792Z,55.90
2017-05-31T22:30:57.262Z,56.30
2017-05-31T22:33:27.730Z,56.80
2017-05-31T22:35:58.192Z,57.10
2017-05-31T22:38:28.636Z,57.40
2017-05-31T22:40:59.117Z,57.80
2017-05-31T22:43:29.568Z,58.10
2017-05-31T22:46:00.050Z,58.30
2017-05-31T22:48:30.502Z,58.50
2017-05-31T22:51:00.963Z,59.10
2017-05-31T22:53:31.408Z,59.30
2017-05-31T22:56:01.876Z,59.60
2017-05-31T22:58:32.331Z,59.70
2017-05-31T23:01:02.804Z,59.80
2017-05-31T23:03:33.266Z,59.80
2017-05-31T23:06:03.724Z,60.00
2017-05-31T23:08:34.188Z,60.00
2017-05-31T23:11:04.685Z,60.00
2017-05-31T23:13:35.154Z,60.00
2017-05-31T23:16:05.616Z,60.20
2017-05-31T23:18:36.069Z,59.70
2017-05-31T23:21:06.546Z,60.00
2017-05-31T23:23:36.996Z,60.00
2017-05-31T23:26:07.463Z,60.30
2017-05-31T23:28:37.907Z,60.70
2017-05-31T23:31:08.382Z,61.20
2017-05-31T23:33:38.824Z,61.60
2017-05-31T23:36:09.293Z,61.60
2017-05-31T23:38:39.738Z,61.70
2017-05-31T23:41:10.203Z,62.00
2017-05-31T23:43:40.670Z,62.20
2017-05-31T23:46:11.128Z,62.60
2017-05-31T23:48:41.586Z,62.70
2017-05-31T23:51:12.068Z,62.60
2017-05-31T23:53:42.527Z,62.90
2017-05-31T23:56:13.000Z,63.20
2017-05-31T23:58:43.467Z,63.30
